sensor_id;sensor_type;location;lat;lon;timestamp;P1;durP1;ratioP1;P2;durP2;ratioP2
80104;SDS011;69865;47.648;19.030;2023-11-22T00:00:18;62.03;;;60.83;;
80104;SDS011;69865;47.648;19.030;2023-11-22T00:00:51;61.17;;;60.20;;
80104;SDS011;69865;47.648;19.030;2023-11-22T00:01:23;66.90;;;66.23;;
80104;SDS011;69865;47.648;19.030;2023-11-22T00:01:55;63.00;;;62.60;;
80104;SDS011;69865;47.648;19.030;2023-11-22T00:02:27;65.13;;;64.40;;
80104;SDS011;69865;47.648;19.030;2023-11-22T00:02:59;63.23;;;62.30;;
80104;SDS011;69865;47.648;19.030;2023-11-22T00:03:31;62.23;;;61.50;;
80104;SDS011;69865;47.648;19.030;2023-11-22T00:04:04;63.00;;;62.17;;
80104;SDS011;69865;47.648;19.030;2023-11-22T00:04:36;62.93;;;62.10;;
80104;SDS011;69865;47.648;19.030;2023-11-22T00:05:08;61.60;;;60.77;;
80104;SDS011;69865;47.648;19.030;2023-11-22T00:05:40;61.90;;;61.10;;
80104;SDS011;69865;47.648;19.030;2023-11-22T00:06:12;59.17;;;58.40;;
80104;SDS011;69865;47.648;19.030;2023-11-22T00:06:44;57.43;;;56.20;;
80104;SDS011;69865;47.648;19.030;2023-11-22T00:07:16;56.97;;;55.93;;
80104;SDS011;69865;47.648;19.030;2023-11-22T00:07:48;57.17;;;56.27;;
80104;SDS011;69865;47.648;19.030;2023-11-22T00:08:20;58.83;;;57.70;;
80104;SDS011;69865;47.648;19.030;2023-11-22T00:08:52;55.93;;;55.13;;
80104;SDS011;69865;47.648;19.030;2023-11-22T00:09:24;53.23;;;52.50;;
80104;SDS011;69865;47.648;19.030;2023-11-22T00:09:56;53.63;;;53.03;;
80104;SDS011;69865;47.648;19.030;2023-11-22T00:10:28;54.10;;;53.30;;
80104;SDS011;69865;47.648;19.030;2023-11-22T00:11:00;55.83;;;54.83;;
80104;SDS011;69865;47.648;19.030;2023-11-22T00:11:32;54.23;;;53.50;;
80104;SDS011;69865;47.648;19.030;2023-11-22T00:12:05;59.87;;;58.90;;
80104;SDS011;69865;47.648;19.030;2023-11-22T00:12:38;61.83;;;60.83;;
80104;SDS011;69865;47.648;19.030;2023-11-22T00:13:10;58.23;;;57.67;;
80104;SDS011;69865;47.648;19.030;2023-11-22T00:13:43;58.93;;;58.07;;
80104;SDS011;69865;47.648;19.030;2023-11-22T00:14:15;57.13;;;56.00;;
80104;SDS011;69865;47.648;19.030;2023-11-22T00:14:48;57.67;;;56.73;;
80104;SDS011;69865;47.648;19.030;2023-11-22T00:15:20;58.23;;;57.37;;
80104;SDS011;69865;47.648;19.030;2023-11-22T00:15:52;59.97;;;58.87;;
80104;SDS011;69865;47.648;19.030;2023-11-22T00:16:25;59.97;;;58.60;;
80104;SDS011;69865;47.648;19.030;2023-11-22T00:16:58;58.33;;;57.47;;
80104;SDS011;69865;47.648;19.030;2023-11-22T00:17:30;57.90;;;57.10;;
80104;SDS011;69865;47.648;19.030;2023-11-22T00:18:03;56.47;;;55.73;;
80104;SDS011;69865;47.648;19.030;2023-11-22T00:18:36;59.17;;;58.33;;
80104;SDS011;69865;47.648;19.030;2023-11-22T00:19:08;61.37;;;60.30;;
80104;SDS011;69865;47.648;19.030;2023-11-22T00:19:40;58.60;;;57.70;;
80104;SDS011;69865;47.648;19.030;2023-11-22T00:20:12;59.87;;;58.87;;
80104;SDS011;69865;47.648;19.030;2023-11-22T00:20:44;58.67;;;57.27;;
80104;SDS011;69865;47.648;19.030;2023-11-22T00:21:16;59.50;;;58.07;;
80104;SDS011;69865;47.648;19.030;2023-11-22T00:21:48;59.40;;;58.33;;
80104;SDS011;69865;47.648;19.030;2023-11-22T00:22:20;58.13;;;57.00;;
80104;SDS011;69865;47.648;19.030;2023-11-22T00:22:52;55.00;;;54.10;;
80104;SDS011;69865;47.648;19.030;2023-11-22T00:23:24;58.63;;;57.57;;
80104;SDS011;69865;47.648;19.030;2023-11-22T00:23:56;59.73;;;58.43;;
80104;SDS011;69865;47.648;19.030;2023-11-22T00:24:29;59.87;;;58.53;;
80104;SDS011;69865;47.648;19.030;2023-11-22T00:25:01;58.37;;;57.13;;
80104;SDS011;69865;47.648;19.030;2023-11-22T00:25:33;58.93;;;57.73;;
80104;SDS011;69865;47.648;19.030;2023-11-22T00:26:05;57.67;;;56.80;;
80104;SDS011;69865;47.648;19.030;2023-11-22T00:26:37;56.43;;;55.90;;
80104;SDS011;69865;47.648;19.030;2023-11-22T00:27:09;55.20;;;54.70;;
80104;SDS011;69865;47.648;19.030;2023-11-22T00:27:41;55.57;;;55.00;;
80104;SDS011;69865;47.648;19.030;2023-11-22T00:28:13;57.17;;;56.60;;
80104;SDS011;69865;47.648;19.030;2023-11-22T00:28:47;56.70;;;55.93;;
80104;SDS011;69865;47.648;19.030;2023-11-22T00:29:19;54.23;;;53.50;;
80104;SDS011;69865;47.648;19.030;2023-11-22T00:29:51;53.20;;;52.53;;
80104;SDS011;69865;47.648;19.030;2023-11-22T00:30:23;53.20;;;52.47;;
80104;SDS011;69865;47.648;19.030;2023-11-22T00:30:55;52.90;;;52.07;;
80104;SDS011;69865;47.648;19.030;2023-11-22T00:31:27;56.30;;;55.47;;
80104;SDS011;69865;47.648;19.030;2023-11-22T00:31:59;54.40;;;53.67;;
80104;SDS011;69865;47.648;19.030;2023-11-22T00:32:31;51.83;;;51.17;;
80104;SDS011;69865;47.648;19.030;2023-11-22T00:33:03;52.07;;;51.17;;
80104;SDS011;69865;47.648;19.030;2023-11-22T00:33:36;55.13;;;54.13;;
80104;SDS011;69865;47.648;19.030;2023-11-22T00:34:08;57.87;;;57.00;;
80104;SDS011;69865;47.648;19.030;2023-11-22T00:34:41;59.93;;;59.00;;
80104;SDS011;69865;47.648;19.030;2023-11-22T00:35:13;64.87;;;63.40;;
80104;SDS011;69865;47.648;19.030;2023-11-22T00:35:45;64.50;;;63.27;;
80104;SDS011;69865;47.648;19.030;2023-11-22T00:36:17;61.50;;;60.17;;
80104;SDS011;69865;47.648;19.030;2023-11-22T00:36:49;58.77;;;57.87;;
80104;SDS011;69865;47.648;19.030;2023-11-22T00:37:21;60.07;;;59.07;;
80104;SDS011;69865;47.648;19.030;2023-11-22T00:37:53;60.13;;;59.17;;
80104;SDS011;69865;47.648;19.030;2023-11-22T00:38:25;60.30;;;59.37;;
80104;SDS011;69865;47.648;19.030;2023-11-22T00:38:57;60.33;;;59.10;;
80104;SDS011;69865;47.648;19.030;2023-11-22T00:39:29;56.00;;;54.77;;
80104;SDS011;69865;47.648;19.030;2023-11-22T00:40:01;55.30;;;54.33;;
80104;SDS011;69865;47.648;19.030;2023-11-22T00:40:33;58.37;;;57.43;;
80104;SDS011;69865;47.648;19.030;2023-11-22T00:41:05;63.50;;;62.17;;
80104;SDS011;69865;47.648;19.030;2023-11-22T00:41:37;63.63;;;62.43;;
80104;SDS011;69865;47.648;19.030;2023-11-22T00:42:09;62.50;;;61.50;;
80104;SDS011;69865;47.648;19.030;2023-11-22T00:42:41;60.53;;;59.53;;
80104;SDS011;69865;47.648;19.030;2023-11-22T00:43:13;62.20;;;61.27;;
80104;SDS011;69865;47.648;19.030;2023-11-22T00:43:47;60.03;;;59.03;;
80104;SDS011;69865;47.648;19.030;2023-11-22T00:44:19;57.37;;;56.40;;
80104;SDS011;69865;47.648;19.030;2023-11-22T00:44:51;56.27;;;55.47;;
80104;SDS011;69865;47.648;19.030;2023-11-22T00:45:23;56.47;;;55.07;;
80104;SDS011;69865;47.648;19.030;2023-11-22T00:45:55;57.07;;;56.20;;
80104;SDS011;69865;47.648;19.030;2023-11-22T00:46:27;55.57;;;54.77;;
80104;SDS011;69865;47.648;19.030;2023-11-22T00:46:59;56.57;;;55.77;;
80104;SDS011;69865;47.648;19.030;2023-11-22T00:47:31;57.20;;;56.47;;
80104;SDS011;69865;47.648;19.030;2023-11-22T00:48:04;55.03;;;53.77;;
80104;SDS011;69865;47.648;19.030;2023-11-22T00:48:36;54.53;;;53.33;;
80104;SDS011;69865;47.648;19.030;2023-11-22T00:49:08;55.07;;;54.07;;
80104;SDS011;69865;47.648;19.030;2023-11-22T00:49:40;54.53;;;53.63;;
80104;SDS011;69865;47.648;19.030;2023-11-22T00:50:12;51.30;;;50.63;;
80104;SDS011;69865;47.648;19.030;2023-11-22T00:50:45;50.53;;;50.00;;
80104;SDS011;69865;47.648;19.030;2023-11-22T00:51:17;47.87;;;47.30;;
80104;SDS011;69865;47.648;19.030;2023-11-22T00:51:49;44.30;;;43.63;;
80104;SDS011;69865;47.648;19.030;2023-11-22T00:52:21;41.27;;;40.63;;
80104;SDS011;69865;47.648;19.030;2023-11-22T00:52:53;43.07;;;42.30;;
80104;SDS011;69865;47.648;19.030;2023-11-22T00:53:25;40.57;;;39.87;;
80104;SDS011;69865;47.648;19.030;2023-11-22T00:53:57;39.93;;;39.47;;
80104;SDS011;69865;47.648;19.030;2023-11-22T00:54:29;39.03;;;38.47;;
80104;SDS011;69865;47.648;19.030;2023-11-22T00:55:04;39.03;;;38.37;;
80104;SDS011;69865;47.648;19.030;2023-11-22T00:55:37;40.07;;;39.40;;
80104;SDS011;69865;47.648;19.030;2023-11-22T00:56:10;38.90;;;38.27;;
80104;SDS011;69865;47.648;19.030;2023-11-22T00:56:42;37.67;;;37.10;;
80104;SDS011;69865;47.648;19.030;2023-11-22T00:57:14;36.57;;;36.07;;
80104;SDS011;69865;47.648;19.030;2023-11-22T00:57:46;37.97;;;37.40;;
80104;SDS011;69865;47.648;19.030;2023-11-22T00:58:18;37.90;;;37.13;;
80104;SDS011;69865;47.648;19.030;2023-11-22T00:58:52;38.27;;;37.43;;
80104;SDS011;69865;47.648;19.030;2023-11-22T00:59:24;36.10;;;35.70;;
80104;SDS011;69865;47.648;19.030;2023-11-22T00:59:56;37.10;;;36.50;;
80104;SDS011;69865;47.648;19.030;2023-11-22T01:00:31;37.10;;;36.57;;
80104;SDS011;69865;47.648;19.030;2023-11-22T01:01:03;36.13;;;35.50;;
80104;SDS011;69865;47.648;19.030;2023-11-22T01:01:36;35.73;;;35.27;;
80104;SDS011;69865;47.648;19.030;2023-11-22T01:02:08;35.37;;;34.80;;
80104;SDS011;69865;47.648;19.030;2023-11-22T01:02:40;36.43;;;35.90;;
80104;SDS011;69865;47.648;19.030;2023-11-22T01:03:12;36.07;;;35.67;;
80104;SDS011;69865;47.648;19.030;2023-11-22T01:03:45;36.57;;;36.27;;
80104;SDS011;69865;47.648;19.030;2023-11-22T01:04:17;37.67;;;37.20;;
80104;SDS011;69865;47.648;19.030;2023-11-22T01:04:49;36.93;;;36.37;;
80104;SDS011;69865;47.648;19.030;2023-11-22T01:05:21;38.13;;;37.63;;
80104;SDS011;69865;47.648;19.030;2023-11-22T01:05:54;38.33;;;37.93;;
80104;SDS011;69865;47.648;19.030;2023-11-22T01:06:28;37.47;;;37.00;;
80104;SDS011;69865;47.648;19.030;2023-11-22T01:07:00;37.97;;;37.53;;
80104;SDS011;69865;47.648;19.030;2023-11-22T01:07:32;39.30;;;38.73;;
80104;SDS011;69865;47.648;19.030;2023-11-22T01:08:04;41.27;;;40.40;;
80104;SDS011;69865;47.648;19.030;2023-11-22T01:08:36;40.93;;;40.27;;
80104;SDS011;69865;47.648;19.030;2023-11-22T01:09:08;41.03;;;40.40;;
80104;SDS011;69865;47.648;19.030;2023-11-22T01:09:40;40.20;;;39.67;;
80104;SDS011;69865;47.648;19.030;2023-11-22T01:10:12;41.03;;;40.70;;
80104;SDS011;69865;47.648;19.030;2023-11-22T01:10:44;42.87;;;42.57;;
80104;SDS011;69865;47.648;19.030;2023-11-22T01:11:16;42.87;;;42.40;;
80104;SDS011;69865;47.648;19.030;2023-11-22T01:11:48;42.80;;;42.30;;
80104;SDS011;69865;47.648;19.030;2023-11-22T01:12:21;43.57;;;43.03;;
80104;SDS011;69865;47.648;19.030;2023-11-22T01:12:53;43.07;;;42.47;;
80104;SDS011;69865;47.648;19.030;2023-11-22T01:13:25;42.30;;;41.77;;
80104;SDS011;69865;47.648;19.030;2023-11-22T01:13:58;42.93;;;42.37;;
80104;SDS011;69865;47.648;19.030;2023-11-22T01:14:30;43.57;;;43.03;;
80104;SDS011;69865;47.648;19.030;2023-11-22T01:15:03;43.67;;;43.10;;
80104;SDS011;69865;47.648;19.030;2023-11-22T01:15:35;42.03;;;41.53;;
80104;SDS011;69865;47.648;19.030;2023-11-22T01:16:10;42.27;;;41.67;;
80104;SDS011;69865;47.648;19.030;2023-11-22T01:16:42;42.90;;;42.27;;
80104;SDS011;69865;47.648;19.030;2023-11-22T01:17:14;44.73;;;44.03;;
80104;SDS011;69865;47.648;19.030;2023-11-22T01:17:46;44.27;;;43.57;;
80104;SDS011;69865;47.648;19.030;2023-11-22T01:18:18;43.67;;;42.80;;
80104;SDS011;69865;47.648;19.030;2023-11-22T01:18:50;43.60;;;42.53;;
80104;SDS011;69865;47.648;19.030;2023-11-22T01:19:22;43.70;;;42.70;;
80104;SDS011;69865;47.648;19.030;2023-11-22T01:19:55;42.13;;;41.40;;
80104;SDS011;69865;47.648;19.030;2023-11-22T01:20:27;40.87;;;40.43;;
80104;SDS011;69865;47.648;19.030;2023-11-22T01:20:59;39.77;;;39.23;;
80104;SDS011;69865;47.648;19.030;2023-11-22T01:21:31;40.93;;;40.37;;
80104;SDS011;69865;47.648;19.030;2023-11-22T01:22:03;40.77;;;40.07;;
80104;SDS011;69865;47.648;19.030;2023-11-22T01:22:35;39.03;;;38.60;;
80104;SDS011;69865;47.648;19.030;2023-11-22T01:23:07;39.00;;;38.53;;
80104;SDS011;69865;47.648;19.030;2023-11-22T01:23:39;41.33;;;40.63;;
80104;SDS011;69865;47.648;19.030;2023-11-22T01:24:11;37.40;;;36.80;;
80104;SDS011;69865;47.648;19.030;2023-11-22T01:24:43;36.30;;;35.67;;
80104;SDS011;69865;47.648;19.030;2023-11-22T01:25:15;37.60;;;36.87;;
80104;SDS011;69865;47.648;19.030;2023-11-22T01:25:47;38.27;;;37.60;;
80104;SDS011;69865;47.648;19.030;2023-11-22T01:26:19;40.73;;;39.57;;
80104;SDS011;69865;47.648;19.030;2023-11-22T01:26:52;41.33;;;40.43;;
80104;SDS011;69865;47.648;19.030;2023-11-22T01:27:24;41.27;;;40.70;;
80104;SDS011;69865;47.648;19.030;2023-11-22T01:27:56;39.40;;;38.73;;
80104;SDS011;69865;47.648;19.030;2023-11-22T01:28:28;36.80;;;35.90;;
80104;SDS011;69865;47.648;19.030;2023-11-22T01:29:05;36.03;;;35.10;;
80104;SDS011;69865;47.648;19.030;2023-11-22T01:29:38;37.10;;;36.30;;
80104;SDS011;69865;47.648;19.030;2023-11-22T01:30:10;37.80;;;37.03;;
80104;SDS011;69865;47.648;19.030;2023-11-22T01:30:42;37.43;;;36.57;;
80104;SDS011;69865;47.648;19.030;2023-11-22T01:31:14;35.63;;;34.90;;
80104;SDS011;69865;47.648;19.030;2023-11-22T01:31:46;35.30;;;34.67;;
80104;SDS011;69865;47.648;19.030;2023-11-22T01:32:18;35.60;;;34.93;;
80104;SDS011;69865;47.648;19.030;2023-11-22T01:32:50;35.80;;;34.90;;
80104;SDS011;69865;47.648;19.030;2023-11-22T01:33:23;35.97;;;35.13;;
80104;SDS011;69865;47.648;19.030;2023-11-22T01:33:55;34.50;;;33.80;;
80104;SDS011;69865;47.648;19.030;2023-11-22T01:34:27;35.80;;;35.00;;
80104;SDS011;69865;47.648;19.030;2023-11-22T01:34:59;35.10;;;34.20;;
80104;SDS011;69865;47.648;19.030;2023-11-22T01:35:31;35.13;;;34.33;;
80104;SDS011;69865;47.648;19.030;2023-11-22T01:36:04;36.03;;;35.33;;
80104;SDS011;69865;47.648;19.030;2023-11-22T01:36:37;36.03;;;35.23;;
80104;SDS011;69865;47.648;19.030;2023-11-22T01:37:14;36.83;;;36.20;;
80104;SDS011;69865;47.648;19.030;2023-11-22T01:37:46;34.20;;;33.63;;
80104;SDS011;69865;47.648;19.030;2023-11-22T01:38:18;31.57;;;30.87;;
80104;SDS011;69865;47.648;19.030;2023-11-22T01:38:50;24.60;;;24.17;;
80104;SDS011;69865;47.648;19.030;2023-11-22T01:39:22;21.60;;;21.30;;
80104;SDS011;69865;47.648;19.030;2023-11-22T01:39:54;22.10;;;21.87;;
80104;SDS011;69865;47.648;19.030;2023-11-22T01:40:26;23.23;;;23.03;;
80104;SDS011;69865;47.648;19.030;2023-11-22T01:40:58;22.93;;;22.77;;
80104;SDS011;69865;47.648;19.030;2023-11-22T01:41:30;23.47;;;23.27;;
80104;SDS011;69865;47.648;19.030;2023-11-22T01:42:02;23.83;;;23.40;;
80104;SDS011;69865;47.648;19.030;2023-11-22T01:42:35;23.47;;;22.87;;
80104;SDS011;69865;47.648;19.030;2023-11-22T01:43:07;24.57;;;24.00;;
80104;SDS011;69865;47.648;19.030;2023-11-22T01:43:39;24.60;;;23.93;;
80104;SDS011;69865;47.648;19.030;2023-11-22T01:44:13;23.33;;;22.87;;
80104;SDS011;69865;47.648;19.030;2023-11-22T01:44:45;23.63;;;23.27;;
80104;SDS011;69865;47.648;19.030;2023-11-22T01:45:17;24.67;;;24.33;;
80104;SDS011;69865;47.648;19.030;2023-11-22T01:45:49;24.63;;;24.27;;
80104;SDS011;69865;47.648;19.030;2023-11-22T01:46:21;25.27;;;24.77;;
80104;SDS011;69865;47.648;19.030;2023-11-22T01:46:55;24.17;;;23.83;;
80104;SDS011;69865;47.648;19.030;2023-11-22T01:47:27;22.23;;;21.97;;
80104;SDS011;69865;47.648;19.030;2023-11-22T01:48:00;23.33;;;23.07;;
80104;SDS011;69865;47.648;19.030;2023-11-22T01:48:33;22.90;;;22.63;;
80104;SDS011;69865;47.648;19.030;2023-11-22T01:49:08;22.73;;;22.53;;
80104;SDS011;69865;47.648;19.030;2023-11-22T01:49:41;22.27;;;22.10;;
80104;SDS011;69865;47.648;19.030;2023-11-22T01:50:13;22.33;;;22.07;;
80104;SDS011;69865;47.648;19.030;2023-11-22T01:50:46;22.97;;;22.63;;
80104;SDS011;69865;47.648;19.030;2023-11-22T01:51:19;22.87;;;22.53;;
80104;SDS011;69865;47.648;19.030;2023-11-22T01:51:52;23.43;;;23.07;;
80104;SDS011;69865;47.648;19.030;2023-11-22T01:52:25;24.47;;;24.20;;
80104;SDS011;69865;47.648;19.030;2023-11-22T01:52:57;23.37;;;23.17;;
80104;SDS011;69865;47.648;19.030;2023-11-22T01:53:32;22.33;;;22.10;;
80104;SDS011;69865;47.648;19.030;2023-11-22T01:54:06;22.70;;;22.50;;
80104;SDS011;69865;47.648;19.030;2023-11-22T01:54:39;24.20;;;23.93;;
80104;SDS011;69865;47.648;19.030;2023-11-22T01:55:12;23.37;;;23.07;;
80104;SDS011;69865;47.648;19.030;2023-11-22T01:55:45;22.67;;;22.47;;
80104;SDS011;69865;47.648;19.030;2023-11-22T01:56:19;23.03;;;22.80;;
80104;SDS011;69865;47.648;19.030;2023-11-22T01:56:52;23.77;;;23.40;;
80104;SDS011;69865;47.648;19.030;2023-11-22T01:57:25;23.73;;;23.37;;
80104;SDS011;69865;47.648;19.030;2023-11-22T01:57:57;24.03;;;23.63;;
80104;SDS011;69865;47.648;19.030;2023-11-22T01:58:29;24.50;;;24.07;;
80104;SDS011;69865;47.648;19.030;2023-11-22T01:59:02;23.93;;;23.47;;
80104;SDS011;69865;47.648;19.030;2023-11-22T01:59:37;24.03;;;23.63;;
80104;SDS011;69865;47.648;19.030;2023-11-22T02:00:11;24.60;;;24.13;;
80104;SDS011;69865;47.648;19.030;2023-11-22T02:00:45;23.47;;;22.80;;
80104;SDS011;69865;47.648;19.030;2023-11-22T02:01:21;25.90;;;25.23;;
80104;SDS011;69865;47.648;19.030;2023-11-22T02:01:53;31.97;;;31.07;;
80104;SDS011;69865;47.648;19.030;2023-11-22T02:02:26;35.37;;;34.47;;
80104;SDS011;69865;47.648;19.030;2023-11-22T02:02:59;37.70;;;36.87;;
80104;SDS011;69865;47.648;19.030;2023-11-22T02:03:31;39.80;;;39.07;;
80104;SDS011;69865;47.648;19.030;2023-11-22T02:04:03;41.50;;;40.83;;
80104;SDS011;69865;47.648;19.030;2023-11-22T02:04:36;38.93;;;38.40;;
80104;SDS011;69865;47.648;19.030;2023-11-22T02:05:08;38.43;;;37.97;;
80104;SDS011;69865;47.648;19.030;2023-11-22T02:05:40;37.73;;;37.20;;
80104;SDS011;69865;47.648;19.030;2023-11-22T02:06:14;38.40;;;38.07;;
80104;SDS011;69865;47.648;19.030;2023-11-22T02:06:47;36.93;;;36.63;;
80104;SDS011;69865;47.648;19.030;2023-11-22T02:07:20;39.00;;;38.60;;
80104;SDS011;69865;47.648;19.030;2023-11-22T02:07:52;39.00;;;38.57;;
80104;SDS011;69865;47.648;19.030;2023-11-22T02:08:24;36.50;;;36.13;;
80104;SDS011;69865;47.648;19.030;2023-11-22T02:08:57;37.40;;;36.87;;
80104;SDS011;69865;47.648;19.030;2023-11-22T02:09:29;38.13;;;37.33;;
80104;SDS011;69865;47.648;19.030;2023-11-22T02:10:01;36.37;;;35.70;;
80104;SDS011;69865;47.648;19.030;2023-11-22T02:10:33;36.27;;;35.63;;
80104;SDS011;69865;47.648;19.030;2023-11-22T02:11:05;35.67;;;35.00;;
80104;SDS011;69865;47.648;19.030;2023-11-22T02:11:37;35.37;;;34.90;;
80104;SDS011;69865;47.648;19.030;2023-11-22T02:12:19;35.53;;;34.97;;
80104;SDS011;69865;47.648;19.030;2023-11-22T02:12:51;33.30;;;32.93;;
80104;SDS011;69865;47.648;19.030;2023-11-22T02:13:24;33.57;;;33.03;;
80104;SDS011;69865;47.648;19.030;2023-11-22T02:13:57;34.93;;;34.43;;
80104;SDS011;69865;47.648;19.030;2023-11-22T02:14:29;36.67;;;36.10;;
80104;SDS011;69865;47.648;19.030;2023-11-22T02:15:03;37.50;;;37.03;;
80104;SDS011;69865;47.648;19.030;2023-11-22T02:15:36;36.30;;;36.00;;
80104;SDS011;69865;47.648;19.030;2023-11-22T02:16:09;36.33;;;36.07;;
80104;SDS011;69865;47.648;19.030;2023-11-22T02:16:41;39.30;;;38.97;;
80104;SDS011;69865;47.648;19.030;2023-11-22T02:17:13;40.03;;;39.53;;
80104;SDS011;69865;47.648;19.030;2023-11-22T02:17:45;40.30;;;39.77;;
80104;SDS011;69865;47.648;19.030;2023-11-22T02:18:18;39.53;;;39.03;;
80104;SDS011;69865;47.648;19.030;2023-11-22T02:18:51;37.20;;;36.87;;
80104;SDS011;69865;47.648;19.030;2023-11-22T02:19:23;36.93;;;36.53;;
80104;SDS011;69865;47.648;19.030;2023-11-22T02:19:55;36.77;;;36.13;;
80104;SDS011;69865;47.648;19.030;2023-11-22T02:20:27;36.10;;;35.27;;
80104;SDS011;69865;47.648;19.030;2023-11-22T02:20:59;37.27;;;36.23;;
80104;SDS011;69865;47.648;19.030;2023-11-22T02:21:32;37.10;;;36.40;;
80104;SDS011;69865;47.648;19.030;2023-11-22T02:22:06;34.13;;;33.80;;
80104;SDS011;69865;47.648;19.030;2023-11-22T02:22:44;32.27;;;31.93;;
80104;SDS011;69865;47.648;19.030;2023-11-22T02:23:20;32.47;;;31.90;;
80104;SDS011;69865;47.648;19.030;2023-11-22T02:23:53;31.60;;;30.77;;
80104;SDS011;69865;47.648;19.030;2023-11-22T02:24:25;32.07;;;31.20;;
80104;SDS011;69865;47.648;19.030;2023-11-22T02:24:57;30.50;;;29.83;;
80104;SDS011;69865;47.648;19.030;2023-11-22T02:25:29;32.70;;;32.10;;
80104;SDS011;69865;47.648;19.030;2023-11-22T02:26:01;32.90;;;32.50;;
80104;SDS011;69865;47.648;19.030;2023-11-22T02:26:33;32.40;;;32.13;;
80104;SDS011;69865;47.648;19.030;2023-11-22T02:27:05;32.03;;;31.60;;
80104;SDS011;69865;47.648;19.030;2023-11-22T02:27:37;32.97;;;32.53;;
80104;SDS011;69865;47.648;19.030;2023-11-22T02:28:09;33.33;;;32.93;;
80104;SDS011;69865;47.648;19.030;2023-11-22T02:28:41;33.20;;;32.67;;
80104;SDS011;69865;47.648;19.030;2023-11-22T02:29:13;32.63;;;32.10;;
80104;SDS011;69865;47.648;19.030;2023-11-22T02:29:46;32.60;;;32.13;;
80104;SDS011;69865;47.648;19.030;2023-11-22T02:30:18;34.43;;;33.87;;
80104;SDS011;69865;47.648;19.030;2023-11-22T02:30:50;34.73;;;34.03;;
80104;SDS011;69865;47.648;19.030;2023-11-22T02:31:22;34.10;;;33.47;;
80104;SDS011;69865;47.648;19.030;2023-11-22T02:31:54;34.87;;;33.93;;
80104;SDS011;69865;47.648;19.030;2023-11-22T02:32:28;32.90;;;32.23;;
80104;SDS011;69865;47.648;19.030;2023-11-22T02:33:00;30.90;;;30.40;;
80104;SDS011;69865;47.648;19.030;2023-11-22T02:33:32;31.07;;;30.63;;
80104;SDS011;69865;47.648;19.030;2023-11-22T02:34:04;32.87;;;32.17;;
80104;SDS011;69865;47.648;19.030;2023-11-22T02:34:36;33.23;;;32.67;;
80104;SDS011;69865;47.648;19.030;2023-11-22T02:35:08;32.60;;;32.03;;
80104;SDS011;69865;47.648;19.030;2023-11-22T02:35:41;32.67;;;32.20;;
80104;SDS011;69865;47.648;19.030;2023-11-22T02:36:13;32.57;;;32.20;;
80104;SDS011;69865;47.648;19.030;2023-11-22T02:36:45;32.63;;;32.20;;
80104;SDS011;69865;47.648;19.030;2023-11-22T02:37:28;34.93;;;34.30;;
80104;SDS011;69865;47.648;19.030;2023-11-22T02:38:00;31.43;;;31.10;;
80104;SDS011;69865;47.648;19.030;2023-11-22T02:38:34;32.63;;;32.03;;
80104;SDS011;69865;47.648;19.030;2023-11-22T02:39:06;32.17;;;31.60;;
80104;SDS011;69865;47.648;19.030;2023-11-22T02:39:41;31.83;;;31.27;;
80104;SDS011;69865;47.648;19.030;2023-11-22T02:40:25;31.37;;;30.70;;
80104;SDS011;69865;47.648;19.030;2023-11-22T02:40:57;31.60;;;31.17;;
80104;SDS011;69865;47.648;19.030;2023-11-22T02:41:29;36.97;;;36.43;;
80104;SDS011;69865;47.648;19.030;2023-11-22T02:42:01;40.23;;;39.50;;
80104;SDS011;69865;47.648;19.030;2023-11-22T02:42:34;44.13;;;43.27;;
80104;SDS011;69865;47.648;19.030;2023-11-22T02:43:06;43.60;;;42.67;;
80104;SDS011;69865;47.648;19.030;2023-11-22T02:43:38;42.47;;;41.63;;
80104;SDS011;69865;47.648;19.030;2023-11-22T02:44:10;41.63;;;41.13;;
80104;SDS011;69865;47.648;19.030;2023-11-22T02:44:42;41.17;;;40.67;;
80104;SDS011;69865;47.648;19.030;2023-11-22T02:45:15;39.77;;;39.07;;
80104;SDS011;69865;47.648;19.030;2023-11-22T02:45:48;38.70;;;38.23;;
80104;SDS011;69865;47.648;19.030;2023-11-22T02:46:20;40.03;;;39.53;;
80104;SDS011;69865;47.648;19.030;2023-11-22T02:46:55;40.67;;;40.30;;
80104;SDS011;69865;47.648;19.030;2023-11-22T02:47:27;43.37;;;42.97;;
80104;SDS011;69865;47.648;19.030;2023-11-22T02:47:59;48.30;;;47.77;;
80104;SDS011;69865;47.648;19.030;2023-11-22T02:48:31;50.37;;;49.33;;
80104;SDS011;69865;47.648;19.030;2023-11-22T02:49:03;44.60;;;43.30;;
80104;SDS011;69865;47.648;19.030;2023-11-22T02:49:35;38.67;;;37.73;;
80104;SDS011;69865;47.648;19.030;2023-11-22T02:50:08;34.90;;;34.40;;
80104;SDS011;69865;47.648;19.030;2023-11-22T02:50:40;35.10;;;34.37;;
80104;SDS011;69865;47.648;19.030;2023-11-22T02:51:13;36.07;;;35.37;;
80104;SDS011;69865;47.648;19.030;2023-11-22T02:51:45;35.53;;;34.83;;
80104;SDS011;69865;47.648;19.030;2023-11-22T02:52:17;36.83;;;36.07;;
80104;SDS011;69865;47.648;19.030;2023-11-22T02:52:49;34.70;;;34.17;;
80104;SDS011;69865;47.648;19.030;2023-11-22T02:53:21;30.33;;;30.00;;
80104;SDS011;69865;47.648;19.030;2023-11-22T02:53:55;31.33;;;30.97;;
80104;SDS011;69865;47.648;19.030;2023-11-22T02:54:27;30.77;;;30.43;;
80104;SDS011;69865;47.648;19.030;2023-11-22T02:54:59;30.07;;;29.67;;
80104;SDS011;69865;47.648;19.030;2023-11-22T02:55:31;29.23;;;28.70;;
80104;SDS011;69865;47.648;19.030;2023-11-22T02:56:06;30.97;;;30.40;;
80104;SDS011;69865;47.648;19.030;2023-11-22T02:56:38;29.67;;;29.17;;
80104;SDS011;69865;47.648;19.030;2023-11-22T02:57:10;28.93;;;28.23;;
80104;SDS011;69865;47.648;19.030;2023-11-22T02:57:43;28.10;;;27.53;;
80104;SDS011;69865;47.648;19.030;2023-11-22T02:58:15;29.67;;;29.17;;
80104;SDS011;69865;47.648;19.030;2023-11-22T02:58:47;30.20;;;29.73;;
80104;SDS011;69865;47.648;19.030;2023-11-22T02:59:19;32.20;;;31.67;;
80104;SDS011;69865;47.648;19.030;2023-11-22T02:59:51;36.63;;;35.97;;
80104;SDS011;69865;47.648;19.030;2023-11-22T03:00:26;36.03;;;35.50;;
80104;SDS011;69865;47.648;19.030;2023-11-22T03:00:58;38.17;;;37.63;;
80104;SDS011;69865;47.648;19.030;2023-11-22T03:01:30;40.03;;;39.60;;
80104;SDS011;69865;47.648;19.030;2023-11-22T03:02:03;46.93;;;46.37;;
80104;SDS011;69865;47.648;19.030;2023-11-22T03:02:35;44.70;;;44.23;;
80104;SDS011;69865;47.648;19.030;2023-11-22T03:03:07;37.83;;;37.27;;
80104;SDS011;69865;47.648;19.030;2023-11-22T03:03:39;31.90;;;31.40;;
80104;SDS011;69865;47.648;19.030;2023-11-22T03:04:11;29.97;;;29.70;;
80104;SDS011;69865;47.648;19.030;2023-11-22T03:04:43;30.53;;;30.23;;
80104;SDS011;69865;47.648;19.030;2023-11-22T03:05:16;31.53;;;31.03;;
80104;SDS011;69865;47.648;19.030;2023-11-22T03:05:51;30.83;;;30.30;;
80104;SDS011;69865;47.648;19.030;2023-11-22T03:06:23;30.33;;;29.87;;
80104;SDS011;69865;47.648;19.030;2023-11-22T03:06:55;30.63;;;29.90;;
80104;SDS011;69865;47.648;19.030;2023-11-22T03:07:27;29.33;;;28.67;;